sensor_id;sensor_type;location;lat;lon;timestamp;P1;durP1;ratioP1;P2;durP2;ratioP2
57335;SDS011;43171;50.994;18.204;2023-05-21T00:07:34;13.60;;;10.90;;
57335;SDS011;43171;50.994;18.204;2023-05-21T00:09:59;21.80;;;15.80;;
57335;SDS011;43171;50.994;18.204;2023-05-21T00:19:42;16.10;;;11.20;;
57335;SDS011;43171;50.994;18.204;2023-05-21T00:29:25;12.50;;;8.30;;
57335;SDS011;43171;50.994;18.204;2023-05-21T00:39:10;11.10;;;9.80;;
57335;SDS011;43171;50.994;18.204;2023-05-21T00:48:55;12.30;;;9.00;;
57335;SDS011;43171;50.994;18.204;2023-05-21T00:58:39;14.40;;;10.50;;
57335;SDS011;43171;50.994;18.204;2023-05-21T01:08:31;15.70;;;10.60;;
57335;SDS011;43171;50.994;18.204;2023-05-21T01:18:17;15.00;;;10.40;;
57335;SDS011;43171;50.994;18.204;2023-05-21T01:28:07;14.80;;;12.00;;
57335;SDS011;43171;50.994;18.204;2023-05-21T01:30:32;23.30;;;18.50;;
57335;SDS011;43171;50.994;18.204;2023-05-21T01:50:12;15.90;;;11.20;;
57335;SDS011;43171;50.994;18.204;2023-05-21T02:00:04;24.70;;;12.70;;
57335;SDS011;43171;50.994;18.204;2023-05-21T02:09:49;11.50;;;9.60;;
57335;SDS011;43171;50.994;18.204;2023-05-21T02:19:32;10.90;;;9.00;;
57335;SDS011;43171;50.994;18.204;2023-05-21T02:29:15;12.80;;;10.50;;
57335;SDS011;43171;50.994;18.204;2023-05-21T02:39:00;13.70;;;12.30;;
57335;SDS011;43171;50.994;18.204;2023-05-21T02:48:42;14.50;;;11.20;;
57335;SDS011;43171;50.994;18.204;2023-05-21T02:51:07;23.40;;;19.10;;
57335;SDS011;43171;50.994;18.204;2023-05-21T03:00:50;15.70;;;12.40;;
57335;SDS011;43171;50.994;18.204;2023-05-21T03:10:33;16.60;;;13.00;;
57335;SDS011;43171;50.994;18.204;2023-05-21T03:20:18;10.90;;;7.30;;
57335;SDS011;43171;50.994;18.204;2023-05-21T03:30:04;16.60;;;12.30;;
57335;SDS011;43171;50.994;18.204;2023-05-21T03:39:49;11.70;;;10.20;;
57335;SDS011;43171;50.994;18.204;2023-05-21T03:49:31;19.10;;;12.00;;
57335;SDS011;43171;50.994;18.204;2023-05-21T03:59:12;18.90;;;9.80;;
57335;SDS011;43171;50.994;18.204;2023-05-21T04:08:54;11.60;;;9.70;;
57335;SDS011;43171;50.994;18.204;2023-05-21T04:18:39;5.10;;;4.60;;
57335;SDS011;43171;50.994;18.204;2023-05-21T04:28:23;11.50;;;8.20;;
57335;SDS011;43171;50.994;18.204;2023-05-21T04:38:14;11.10;;;9.00;;
57335;SDS011;43171;50.994;18.204;2023-05-21T04:48:01;10.90;;;8.90;;
57335;SDS011;43171;50.994;18.204;2023-05-21T04:57:46;8.30;;;6.80;;
57335;SDS011;43171;50.994;18.204;2023-05-21T05:07:29;8.90;;;7.20;;
57335;SDS011;43171;50.994;18.204;2023-05-21T05:09:54;10.20;;;7.60;;
57335;SDS011;43171;50.994;18.204;2023-05-21T05:19:39;7.30;;;6.50;;
57335;SDS011;43171;50.994;18.204;2023-05-21T05:29:22;6.40;;;4.60;;
57335;SDS011;43171;50.994;18.204;2023-05-21T05:39:04;9.30;;;5.30;;
57335;SDS011;43171;50.994;18.204;2023-05-21T05:48:46;6.10;;;5.20;;
57335;SDS011;43171;50.994;18.204;2023-05-21T05:58:31;7.40;;;6.00;;
57335;SDS011;43171;50.994;18.204;2023-05-21T06:08:14;6.70;;;5.20;;
57335;SDS011;43171;50.994;18.204;2023-05-21T06:17:56;6.60;;;5.50;;
57335;SDS011;43171;50.994;18.204;2023-05-21T06:27:38;5.00;;;4.60;;
57335;SDS011;43171;50.994;18.204;2023-05-21T06:37:21;5.40;;;4.00;;
57335;SDS011;43171;50.994;18.204;2023-05-21T06:47:02;7.00;;;4.50;;
57335;SDS011;43171;50.994;18.204;2023-05-21T06:56:44;8.40;;;4.70;;
57335;SDS011;43171;50.994;18.204;2023-05-21T07:06:27;3.00;;;2.70;;
57335;SDS011;43171;50.994;18.204;2023-05-21T07:16:09;5.20;;;4.40;;
57335;SDS011;43171;50.994;18.204;2023-05-21T07:25:51;8.10;;;3.60;;
57335;SDS011;43171;50.994;18.204;2023-05-21T07:35:36;5.90;;;3.70;;
57335;SDS011;43171;50.994;18.204;2023-05-21T07:45:18;6.20;;;4.70;;
57335;SDS011;43171;50.994;18.204;2023-05-21T07:55:02;4.50;;;4.00;;
57335;SDS011;43171;50.994;18.204;2023-05-21T08:04:44;4.00;;;3.60;;
57335;SDS011;43171;50.994;18.204;2023-05-21T08:14:26;6.30;;;3.80;;
57335;SDS011;43171;50.994;18.204;2023-05-21T08:24:08;3.60;;;3.20;;
57335;SDS011;43171;50.994;18.204;2023-05-21T08:33:52;4.30;;;3.20;;
57335;SDS011;43171;50.994;18.204;2023-05-21T08:43:37;6.90;;;3.10;;
57335;SDS011;43171;50.994;18.204;2023-05-21T08:53:22;3.00;;;2.30;;
57335;SDS011;43171;50.994;18.204;2023-05-21T09:03:05;2.00;;;1.90;;
57335;SDS011;43171;50.994;18.204;2023-05-21T09:13:03;3.90;;;2.50;;
57335;SDS011;43171;50.994;18.204;2023-05-21T09:22:51;8.80;;;2.60;;
57335;SDS011;43171;50.994;18.204;2023-05-21T09:32:44;3.10;;;2.00;;
57335;SDS011;43171;50.994;18.204;2023-05-21T09:42:53;2.50;;;2.20;;
57335;SDS011;43171;50.994;18.204;2023-05-21T09:52:44;2.50;;;2.30;;
57335;SDS011;43171;50.994;18.204;2023-05-21T10:02:36;4.00;;;2.30;;
57335;SDS011;43171;50.994;18.204;2023-05-21T10:12:23;1.90;;;1.80;;
57335;SDS011;43171;50.994;18.204;2023-05-21T10:17:28;3.40;;;2.30;;
57335;SDS011;43171;50.994;18.204;2023-05-21T10:27:12;4.50;;;2.90;;
57335;SDS011;43171;50.994;18.204;2023-05-21T10:36:56;7.40;;;2.10;;
57335;SDS011;43171;50.994;18.204;2023-05-21T10:47:24;2.90;;;2.50;;
57335;SDS011;43171;50.994;18.204;2023-05-21T11:08:24;2.40;;;2.20;;
57335;SDS011;43171;50.994;18.204;2023-05-21T11:18:40;0.70;;;0.70;;
57335;SDS011;43171;50.994;18.204;2023-05-21T11:28:43;2.40;;;1.50;;
57335;SDS011;43171;50.994;18.204;2023-05-21T11:38:38;1.80;;;1.70;;
57335;SDS011;43171;50.994;18.204;2023-05-21T11:48:24;6.10;;;2.00;;
57335;SDS011;43171;50.994;18.204;2023-05-21T11:58:08;2.20;;;2.00;;
57335;SDS011;43171;50.994;18.204;2023-05-21T12:08:08;3.50;;;2.60;;
57335;SDS011;43171;50.994;18.204;2023-05-21T12:17:55;2.90;;;2.70;;
57335;SDS011;43171;50.994;18.204;2023-05-21T12:27:47;2.20;;;1.70;;
57335;SDS011;43171;50.994;18.204;2023-05-21T12:37:34;3.00;;;2.20;;
57335;SDS011;43171;50.994;18.204;2023-05-21T12:47:26;2.80;;;2.60;;
57335;SDS011;43171;50.994;18.204;2023-05-21T12:57:20;1.60;;;1.50;;
57335;SDS011;43171;50.994;18.204;2023-05-21T13:07:06;2.10;;;1.80;;
57335;SDS011;43171;50.994;18.204;2023-05-21T13:16:49;2.20;;;2.10;;
57335;SDS011;43171;50.994;18.204;2023-05-21T13:26:32;2.20;;;2.00;;
57335;SDS011;43171;50.994;18.204;2023-05-21T13:36:15;4.40;;;1.60;;
57335;SDS011;43171;50.994;18.204;2023-05-21T13:45:57;4.10;;;3.10;;
57335;SDS011;43171;50.994;18.204;2023-05-21T13:55:39;5.90;;;2.30;;
57335;SDS011;43171;50.994;18.204;2023-05-21T14:05:22;4.10;;;2.90;;
57335;SDS011;43171;50.994;18.204;2023-05-21T14:15:05;2.30;;;1.80;;
57335;SDS011;43171;50.994;18.204;2023-05-21T14:24:48;1.60;;;1.50;;
57335;SDS011;43171;50.994;18.204;2023-05-21T14:34:31;2.00;;;1.80;;
57335;SDS011;43171;50.994;18.204;2023-05-21T14:44:14;1.70;;;1.60;;
57335;SDS011;43171;50.994;18.204;2023-05-21T14:53:56;0.80;;;0.80;;
57335;SDS011;43171;50.994;18.204;2023-05-21T15:03:41;2.10;;;2.00;;
57335;SDS011;43171;50.994;18.204;2023-05-21T15:13:24;3.30;;;2.20;;
57335;SDS011;43171;50.994;18.204;2023-05-21T15:23:07;3.00;;;2.50;;
57335;SDS011;43171;50.994;18.204;2023-05-21T15:32:51;2.00;;;1.90;;
57335;SDS011;43171;50.994;18.204;2023-05-21T15:42:35;2.00;;;1.80;;
57335;SDS011;43171;50.994;18.204;2023-05-21T15:52:17;0.80;;;0.80;;
57335;SDS011;43171;50.994;18.204;2023-05-21T16:02:00;2.20;;;1.80;;
57335;SDS011;43171;50.994;18.204;2023-05-21T16:19:00;2.00;;;1.90;;
57335;SDS011;43171;50.994;18.204;2023-05-21T16:28:42;16.50;;;2.20;;
57335;SDS011;43171;50.994;18.204;2023-05-21T16:38:25;8.10;;;2.20;;
57335;SDS011;43171;50.994;18.204;2023-05-21T16:48:09;2.60;;;1.60;;
57335;SDS011;43171;50.994;18.204;2023-05-21T16:57:53;9.90;;;2.10;;
57335;SDS011;43171;50.994;18.204;2023-05-21T17:07:35;2.80;;;2.40;;
57335;SDS011;43171;50.994;18.204;2023-05-21T17:17:20;1.80;;;1.70;;
57335;SDS011;43171;50.994;18.204;2023-05-21T17:27:04;3.70;;;2.80;;
57335;SDS011;43171;50.994;18.204;2023-05-21T17:36:50;2.40;;;2.20;;
57335;SDS011;43171;50.994;18.204;2023-05-21T17:46:37;2.60;;;2.40;;
57335;SDS011;43171;50.994;18.204;2023-05-21T17:56:22;2.30;;;2.10;;
57335;SDS011;43171;50.994;18.204;2023-05-21T18:06:06;3.10;;;2.70;;
57335;SDS011;43171;50.994;18.204;2023-05-21T18:15:48;3.00;;;2.70;;
57335;SDS011;43171;50.994;18.204;2023-05-21T18:25:36;3.20;;;2.90;;
57335;SDS011;43171;50.994;18.204;2023-05-21T18:35:18;4.60;;;3.30;;
57335;SDS011;43171;50.994;18.204;2023-05-21T18:45:05;3.00;;;2.20;;
57335;SDS011;43171;50.994;18.204;2023-05-21T18:54:49;2.40;;;2.20;;
57335;SDS011;43171;50.994;18.204;2023-05-21T19:04:31;5.20;;;3.10;;
57335;SDS011;43171;50.994;18.204;2023-05-21T19:09:22;7.40;;;4.10;;
57335;SDS011;43171;50.994;18.204;2023-05-21T19:19:04;11.20;;;2.50;;
57335;SDS011;43171;50.994;18.204;2023-05-21T19:28:47;2.30;;;1.80;;
57335;SDS011;43171;50.994;18.204;2023-05-21T19:38:49;3.40;;;2.40;;
57335;SDS011;43171;50.994;18.204;2023-05-21T19:48:32;4.50;;;2.70;;
57335;SDS011;43171;50.994;18.204;2023-05-21T19:58:15;2.50;;;1.80;;
57335;SDS011;43171;50.994;18.204;2023-05-21T20:08:01;2.90;;;2.40;;
57335;SDS011;43171;50.994;18.204;2023-05-21T20:17:45;3.70;;;3.20;;
57335;SDS011;43171;50.994;18.204;2023-05-21T20:27:33;3.30;;;2.40;;
57335;SDS011;43171;50.994;18.204;2023-05-21T20:37:21;4.00;;;3.40;;
57335;SDS011;43171;50.994;18.204;2023-05-21T20:47:27;3.50;;;3.20;;
57335;SDS011;43171;50.994;18.204;2023-05-21T20:57:19;8.50;;;4.30;;
57335;SDS011;43171;50.994;18.204;2023-05-21T21:07:04;10.40;;;3.80;;
57335;SDS011;43171;50.994;18.204;2023-05-21T21:16:50;3.70;;;3.30;;
57335;SDS011;43171;50.994;18.204;2023-05-21T21:26:34;3.90;;;3.00;;
57335;SDS011;43171;50.994;18.204;2023-05-21T21:36:17;4.10;;;3.40;;
57335;SDS011;43171;50.994;18.204;2023-05-21T21:45:59;3.00;;;2.80;;
57335;SDS011;43171;50.994;18.204;2023-05-21T21:55:42;4.00;;;2.60;;
57335;SDS011;43171;50.994;18.204;2023-05-21T22:05:24;2.40;;;2.20;;
57335;SDS011;43171;50.994;18.204;2023-05-21T22:15:07;5.50;;;3.10;;
57335;SDS011;43171;50.994;18.204;2023-05-21T22:24:55;4.00;;;3.30;;
57335;SDS011;43171;50.994;18.204;2023-05-21T22:34:37;5.80;;;4.10;;
57335;SDS011;43171;50.994;18.204;2023-05-21T22:51:39;3.50;;;2.80;;
57335;SDS011;43171;50.994;18.204;2023-05-21T23:01:25;12.10;;;3.30;;
57335;SDS011;43171;50.994;18.204;2023-05-21T23:11:07;5.00;;;3.00;;
57335;SDS011;43171;50.994;18.204;2023-05-21T23:20:49;5.90;;;3.80;;
57335;SDS011;43171;50.994;18.204;2023-05-21T23:30:32;5.50;;;3.80;;
57335;SDS011;43171;50.994;18.204;2023-05-21T23:40:14;4.60;;;4.10;;
57335;SDS011;43171;50.994;18.204;2023-05-21T23:49:56;4.20;;;3.80;;
